createdAt,value
2023-03-26T00:01:33.954Z,92.90
2023-03-26T00:04:01.828Z,92.90
2023-03-26T00:06:34.981Z,93.00
2023-03-26T00:09:02.463Z,93.00
2023-03-26T00:11:30.503Z,93.00
2023-03-26T00:13:58.762Z,93.00
2023-03-26T00:16:29.173Z,93.00
2023-03-26T00:18:57.832Z,93.10
2023-03-26T00:21:28.197Z,93.00
2023-03-26T00:23:58.640Z,93.10
2023-03-26T00:26:27.767Z,93.20
2023-03-26T00:28:55.246Z,93.40
2023-03-26T00:31:22.837Z,93.30
2023-03-26T00:33:55.811Z,93.40
2023-03-26T00:36:26.940Z,93.40
2023-03-26T00:38:55.320Z,93.40
2023-03-26T00:41:31.065Z,93.70
2023-03-26T00:44:00.916Z,93.50
2023-03-26T00:46:33.534Z,93.80
2023-03-26T00:49:02.087Z,94.00
2023-03-26T00:51:30.115Z,94.40
2023-03-26T00:53:58.138Z,94.40
2023-03-26T00:56:26.283Z,94.30
2023-03-26T00:58:53.666Z,94.40
2023-03-26T01:01:27.842Z,94.60
2023-03-26T01:04:08.891Z,94.60
2023-03-26T01:06:41.570Z,94.30
2023-03-26T01:09:19.038Z,94.50
2023-03-26T01:11:49.078Z,94.90
2023-03-26T01:14:27.046Z,94.70
2023-03-26T01:17:00.560Z,94.90
2023-03-26T01:20:05.880Z,94.90
2023-03-26T01:22:37.854Z,95.10
2023-03-26T01:25:05.676Z,95.10
2023-03-26T01:27:39.111Z,95.20
2023-03-26T01:31:01.525Z,95.00
2023-03-26T01:33:49.338Z,94.70
2023-03-26T01:36:32.523Z,94.50
2023-03-26T01:39:11.508Z,94.30
2023-03-26T01:41:58.381Z,94.30
2023-03-26T01:44:34.873Z,94.10
2023-03-26T01:47:03.490Z,94.00
2023-03-26T01:49:33.846Z,94.10
2023-03-26T01:52:01.321Z,93.90
2023-03-26T01:54:31.557Z,93.90
2023-03-26T01:57:26.656Z,93.80
2023-03-26T02:00:19.079Z,94.00
2023-03-26T02:03:04.979Z,93.90
2023-03-26T02:05:50.127Z,93.90
2023-03-26T02:08:37.441Z,94.00
2023-03-26T02:11:13.196Z,94.30
2023-03-26T02:13:43.794Z,94.40
2023-03-26T02:16:18.747Z,94.60
2023-03-26T02:18:51.442Z,94.70
2023-03-26T02:21:21.936Z,94.70
2023-03-26T02:24:03.503Z,94.60
2023-03-26T02:26:35.954Z,94.60
2023-03-26T02:29:10.140Z,94.50
2023-03-26T02:31:39.847Z,94.50
2023-03-26T02:34:07.615Z,94.40
2023-03-26T02:36:37.619Z,94.40
2023-03-26T02:39:09.470Z,94.30
2023-03-26T02:41:38.953Z,94.10
2023-03-26T02:44:09.874Z,94.20
2023-03-26T02:46:57.407Z,94.30
2023-03-26T02:49:43.823Z,94.20
2023-03-26T02:52:18.875Z,94.20
2023-03-26T02:54:48.624Z,94.20
2023-03-26T02:57:25.441Z,94.20
2023-03-26T03:00:06.047Z,94.20
2023-03-26T03:02:54.355Z,94.20
2023-03-26T03:05:34.799Z,94.20
2023-03-26T03:08:26.393Z,94.40
2023-03-26T03:11:16.105Z,94.60
2023-03-26T03:13:48.719Z,94.60
2023-03-26T03:16:20.270Z,94.70
2023-03-26T03:18:54.802Z,94.80
2023-03-26T03:21:24.959Z,94.80
2023-03-26T03:23:54.950Z,94.60
2023-03-26T03:26:30.211Z,94.80
2023-03-26T03:29:02.089Z,94.50
2023-03-26T03:31:29.656Z,94.50
2023-03-26T03:34:03.027Z,94.40
2023-03-26T03:36:38.569Z,94.70
2023-03-26T03:39:18.788Z,95.00
2023-03-26T03:41:46.581Z,95.10
2023-03-26T03:44:16.048Z,95.00
2023-03-26T03:46:43.822Z,95.20
2023-03-26T03:49:11.428Z,95.20
2023-03-26T03:51:38.909Z,95.30
2023-03-26T03:54:15.551Z,95.50
2023-03-26T03:56:47.436Z,95.50
2023-03-26T03:59:53.465Z,95.60
2023-03-26T04:02:30.548Z,95.80
2023-03-26T04:05:04.166Z,95.70
2023-03-26T04:07:32.905Z,95.80
2023-03-26T04:10:08.336Z,96.10
2023-03-26T04:12:54.221Z,96.20
2023-03-26T04:15:36.718Z,96.30
2023-03-26T04:18:04.542Z,96.30
2023-03-26T04:20:35.554Z,96.30
2023-03-26T04:23:04.452Z,96.30
2023-03-26T04:25:33.544Z,96.70
2023-03-26T04:28:35.781Z,96.50
2023-03-26T04:31:18.447Z,96.30
2023-03-26T04:33:47.816Z,96.60
2023-03-26T04:36:18.514Z,96.80
2023-03-26T04:38:52.225Z,96.60
2023-03-26T04:41:28.117Z,96.90
2023-03-26T04:44:06.138Z,96.80
2023-03-26T04:46:53.722Z,97.00
2023-03-26T04:49:29.462Z,97.10
2023-03-26T04:51:57.145Z,97.50
2023-03-26T04:54:46.137Z,97.90
2023-03-26T04:57:24.350Z,98.80
2023-03-26T05:00:19.581Z,99.70
2023-03-26T05:02:56.139Z,99.90
2023-03-26T05:05:25.534Z,99.50
2023-03-26T05:07:54.083Z,99.40
2023-03-26T05:10:22.971Z,99.40
2023-03-26T05:12:58.655Z,99.40
2023-03-26T05:15:28.798Z,99.40
2023-03-26T05:18:22.486Z,99.60
2023-03-26T05:20:53.203Z,99.00
2023-03-26T05:23:23.728Z,99.30
2023-03-26T05:26:00.440Z,99.30
2023-03-26T05:28:28.679Z,99.10
2023-03-26T05:31:03.298Z,99.00
2023-03-26T05:33:35.765Z,98.70
2023-03-26T05:36:19.363Z,99.00
2023-03-26T05:38:52.493Z,98.80
2023-03-26T05:41:39.796Z,98.30
2023-03-26T05:44:07.378Z,98.10
2023-03-26T05:46:34.992Z,98.20
2023-03-26T05:49:02.592Z,98.70
2023-03-26T05:51:33.962Z,98.60
2023-03-26T05:54:21.598Z,98.60
2023-03-26T05:57:09.296Z,98.40
2023-03-26T05:59:56.429Z,98.30
2023-03-26T06:02:43.055Z,97.90
2023-03-26T06:05:37.551Z,97.80
2023-03-26T06:08:27.846Z,97.80
2023-03-26T06:11:04.152Z,97.70
2023-03-26T06:13:35.444Z,97.60
2023-03-26T06:16:03.054Z,97.90
2023-03-26T06:18:36.792Z,98.10
2023-03-26T06:21:22.532Z,97.80
2023-03-26T06:24:13.044Z,97.50
2023-03-26T06:27:09.371Z,96.80
2023-03-26T06:30:09.842Z,96.10
2023-03-26T06:33:12.428Z,96.40
2023-03-26T06:35:46.345Z,95.50
2023-03-26T06:38:19.351Z,94.70
2023-03-26T06:40:46.961Z,94.30
2023-03-26T06:43:35.724Z,94.40
2023-03-26T06:46:21.672Z,94.40
2023-03-26T06:49:15.076Z,94.50
2023-03-26T06:51:53.282Z,94.20
2023-03-26T06:54:46.930Z,93.90
2023-03-26T06:57:37.752Z,93.80
2023-03-26T07:00:31.282Z,94.00
2023-03-26T07:03:17.444Z,94.10
2023-03-26T07:06:03.793Z,94.20
2023-03-26T07:08:49.565Z,93.80
2023-03-26T07:11:37.203Z,92.80
2023-03-26T07:14:24.553Z,92.10
2023-03-26T07:17:10.919Z,92.10
2023-03-26T07:20:01.672Z,91.50
2023-03-26T07:22:35.697Z,90.50
2023-03-26T07:25:09.861Z,90.90
2023-03-26T07:28:09.093Z,91.00
2023-03-26T07:31:27.170Z,91.60
2023-03-26T07:34:56.841Z,92.10
2023-03-26T07:38:03.886Z,93.60
2023-03-26T07:41:01.627Z,94.40
2023-03-26T07:44:02.910Z,94.60
2023-03-26T07:46:53.669Z,94.00
2023-03-26T07:49:44.873Z,93.90
2023-03-26T07:52:26.800Z,92.30
2023-03-26T07:55:00.329Z,91.30
2023-03-26T07:57:51.940Z,90.00
2023-03-26T08:01:03.584Z,89.60
2023-03-26T08:03:48.087Z,89.00
2023-03-26T08:06:37.977Z,87.00
2023-03-26T08:10:01.230Z,85.80
2023-03-26T08:13:10.366Z,84.80
2023-03-26T08:15:54.268Z,85.00
2023-03-26T08:18:59.596Z,84.20
2023-03-26T08:21:38.182Z,83.70
2023-03-26T08:24:13.485Z,80.80
2023-03-26T08:27:05.588Z,79.30
2023-03-26T08:29:36.420Z,79.80
2023-03-26T08:32:09.254Z,77.60
2023-03-26T08:34:36.382Z,78.50
2023-03-26T08:37:04.615Z,78.70
2023-03-26T08:39:32.433Z,77.80
2023-03-26T08:42:27.545Z,79.20
2023-03-26T08:45:21.437Z,77.40
2023-03-26T08:48:10.290Z,76.90
2023-03-26T08:50:50.123Z,75.50
2023-03-26T08:53:49.988Z,76.40
2023-03-26T08:56:26.381Z,74.20
2023-03-26T08:59:47.212Z,74.30
2023-03-26T09:02:30.013Z,72.80
2023-03-26T09:05:26.751Z,72.60
2023-03-26T09:08:09.074Z,74.30
2023-03-26T09:11:06.846Z,75.10
2023-03-26T09:14:11.919Z,77.00
2023-03-26T09:17:13.024Z,72.40
2023-03-26T09:20:15.559Z,73.10
2023-03-26T09:23:01.746Z,71.40
2023-03-26T09:25:44.736Z,71.80
2023-03-26T09:28:40.974Z,70.50
2023-03-26T09:31:30.150Z,72.50
2023-03-26T09:34:30.326Z,71.80
2023-03-26T09:37:26.756Z,67.90
2023-03-26T09:40:13.034Z,68.40
2023-03-26T09:43:03.221Z,70.70
2023-03-26T09:45:45.579Z,71.40
2023-03-26T09:48:54.216Z,73.50
2023-03-26T09:51:33.787Z,72.90
2023-03-26T09:54:28.609Z,72.60
2023-03-26T09:57:17.830Z,72.10
2023-03-26T10:00:00.542Z,71.70
2023-03-26T10:02:46.925Z,69.40
2023-03-26T10:05:42.787Z,67.40
2023-03-26T10:08:23.621Z,68.90
2023-03-26T10:11:12.278Z,70.20
2023-03-26T10:13:54.916Z,68.40
2023-03-26T10:16:46.560Z,68.50
2023-03-26T10:19:35.095Z,70.90
2023-03-26T10:22:09.870Z,76.90
2023-03-26T10:24:47.777Z,74.10
2023-03-26T10:27:39.542Z,70.20
2023-03-26T10:30:37.384Z,70.00
2023-03-26T10:33:29.245Z,69.10
2023-03-26T10:36:29.962Z,69.60
2023-03-26T10:39:36.005Z,73.20
2023-03-26T10:42:05.755Z,73.90
2023-03-26T10:45:09.816Z,72.90
2023-03-26T10:47:46.368Z,72.60
2023-03-26T10:50:41.120Z,73.90
2023-03-26T10:53:42.469Z,73.80
2023-03-26T10:56:34.898Z,74.60
2023-03-26T10:59:08.378Z,73.40
2023-03-26T11:02:10.109Z,72.20
2023-03-26T11:04:48.865Z,72.00
2023-03-26T11:07:38.623Z,71.50
2023-03-26T11:10:16.112Z,73.60
2023-03-26T11:12:54.516Z,74.60
2023-03-26T11:15:36.285Z,74.60
2023-03-26T11:18:35.753Z,74.90
2023-03-26T11:21:18.461Z,73.40
2023-03-26T11:24:25.598Z,74.80
2023-03-26T11:27:15.354Z,75.20
2023-03-26T11:29:59.620Z,72.40
2023-03-26T11:32:50.547Z,73.30
2023-03-26T11:35:41.761Z,72.00
2023-03-26T11:38:27.369Z,71.20
2023-03-26T11:40:57.068Z,69.00
2023-03-26T11:43:55.626Z,62.70
2023-03-26T11:46:26.178Z,60.60
2023-03-26T11:48:59.684Z,60.20
2023-03-26T11:51:33.882Z,60.40
2023-03-26T11:54:03.320Z,62.40
2023-03-26T11:56:35.231Z,59.60
2023-03-26T11:59:33.866Z,59.60
2023-03-26T12:02:05.699Z,59.60
2023-03-26T12:04:51.268Z,61.00
2023-03-26T12:07:32.129Z,62.20
2023-03-26T12:10:18.615Z,61.00
2023-03-26T12:12:48.443Z,60.80
2023-03-26T12:15:19.209Z,59.70
2023-03-26T12:17:48.754Z,59.30
2023-03-26T12:20:36.173Z,57.50
2023-03-26T12:23:06.911Z,58.10
2023-03-26T12:25:39.207Z,58.30
2023-03-26T12:28:17.545Z,59.30
2023-03-26T12:30:54.398Z,57.50
2023-03-26T12:33:35.473Z,57.10
2023-03-26T12:36:24.977Z,55.80
2023-03-26T12:39:16.715Z,56.40
2023-03-26T12:42:52.597Z,56.70
2023-03-26T12:44:58.756Z,57.90
2023-03-26T12:47:57.723Z,59.30
2023-03-26T12:50:34.333Z,58.40
2023-03-26T12:53:24.554Z,56.70
2023-03-26T12:56:02.444Z,54.00
2023-03-26T12:58:51.213Z,54.60
2023-03-26T13:01:45.750Z,55.60
2023-03-26T13:04:13.768Z,55.30
2023-03-26T13:07:01.430Z,55.50
2023-03-26T13:09:37.845Z,54.00
2023-03-26T13:12:41.163Z,54.10
2023-03-26T13:15:14.103Z,54.30
2023-03-26T13:18:19.166Z,54.60
2023-03-26T13:20:58.776Z,54.30
2023-03-26T13:23:59.783Z,54.60
2023-03-26T13:26:48.308Z,54.90
2023-03-26T13:29:22.009Z,55.70
2023-03-26T13:31:56.053Z,56.60
2023-03-26T13:34:33.592Z,56.20
2023-03-26T13:37:25.364Z,56.50
2023-03-26T13:40:37.576Z,54.30
2023-03-26T13:43:26.205Z,54.50
2023-03-26T13:46:10.380Z,54.50
2023-03-26T13:48:48.653Z,55.40
2023-03-26T13:51:22.857Z,56.00
2023-03-26T13:54:00.955Z,55.50
2023-03-26T13:56:41.482Z,54.80
2023-03-26T13:59:19.847Z,54.10
2023-03-26T14:02:11.215Z,54.00
2023-03-26T14:04:49.180Z,54.00
2023-03-26T14:07:25.354Z,53.20
2023-03-26T14:09:58.220Z,53.70
2023-03-26T14:12:51.362Z,53.90
2023-03-26T14:15:47.609Z,55.00
2023-03-26T14:18:39.991Z,54.20
2023-03-26T14:21:25.819Z,55.30
2023-03-26T14:23:53.906Z,55.20
2023-03-26T14:26:25.624Z,55.40
2023-03-26T14:29:13.865Z,55.20
2023-03-26T14:32:02.916Z,54.80
2023-03-26T14:34:38.813Z,55.60
2023-03-26T14:37:27.045Z,55.50
2023-03-26T14:40:17.293Z,55.50
2023-03-26T14:43:20.699Z,55.40
2023-03-26T14:46:29.588Z,54.30
2023-03-26T14:49:22.066Z,55.00
2023-03-26T14:52:04.054Z,54.10
2023-03-26T14:54:35.915Z,54.30
2023-03-26T14:57:21.735Z,54.70
2023-03-26T15:00:07.777Z,54.70
2023-03-26T15:03:09.600Z,54.60
2023-03-26T15:05:48.419Z,55.20
2023-03-26T15:08:38.122Z,54.70
2023-03-26T15:11:31.794Z,54.80
2023-03-26T15:14:37.195Z,55.30
2023-03-26T15:17:58.653Z,55.10
2023-03-26T15:20:58.067Z,54.70
2023-03-26T15:23:58.025Z,55.20
2023-03-26T15:26:57.912Z,55.60
2023-03-26T15:30:13.201Z,55.00
2023-03-26T15:33:03.964Z,55.20
2023-03-26T15:35:57.770Z,55.70
2023-03-26T15:38:46.524Z,56.20
2023-03-26T15:41:19.196Z,56.70
2023-03-26T15:46:38.554Z,56.00
2023-03-26T15:49:14.890Z,56.00
2023-03-26T15:52:06.516Z,56.50
2023-03-26T15:55:01.517Z,57.10
2023-03-26T15:57:45.087Z,58.00
2023-03-26T16:00:29.676Z,57.90
2023-03-26T16:03:09.696Z,58.10
2023-03-26T16:06:16.379Z,58.30
2023-03-26T16:09:05.168Z,58.10
2023-03-26T16:11:55.155Z,57.70
2023-03-26T16:14:35.627Z,57.60
2023-03-26T16:17:08.105Z,57.70
2023-03-26T16:19:47.961Z,57.40
2023-03-26T16:22:49.926Z,57.00
2023-03-26T16:25:27.087Z,57.00
2023-03-26T16:28:28.070Z,57.10
2023-03-26T16:31:36.013Z,58.00
2023-03-26T16:34:41.556Z,58.10
2023-03-26T16:37:41.145Z,58.60
2023-03-26T16:40:18.187Z,59.30
2023-03-26T16:43:11.183Z,59.60
2023-03-26T16:45:50.544Z,60.10
2023-03-26T16:48:25.003Z,60.30
2023-03-26T16:51:17.474Z,60.70
2023-03-26T16:54:00.390Z,61.10
2023-03-26T16:56:41.611Z,61.40
2023-03-26T16:59:37.305Z,61.60
2023-03-26T17:02:32.295Z,61.80
2023-03-26T17:05:21.473Z,61.90
2023-03-26T17:08:08.217Z,62.10
2023-03-26T17:10:47.866Z,62.30
2023-03-26T17:13:27.689Z,62.50
2023-03-26T17:16:36.758Z,63.10
2023-03-26T17:19:17.110Z,63.10
2023-03-26T17:22:11.766Z,63.60
2023-03-26T17:25:05.133Z,63.90
2023-03-26T17:28:24.991Z,64.20
2023-03-26T17:30:53.251Z,64.60
2023-03-26T17:33:27.400Z,64.60
2023-03-26T17:36:13.444Z,65.00
2023-03-26T17:38:45.426Z,64.70
2023-03-26T17:41:18.273Z,65.00
2023-03-26T17:43:48.884Z,64.80
2023-03-26T17:46:26.458Z,65.30
2023-03-26T17:49:07.452Z,65.50
2023-03-26T17:51:51.347Z,65.60
2023-03-26T17:54:35.991Z,65.70
2023-03-26T17:57:28.416Z,66.10
2023-03-26T18:00:01.944Z,66.30
2023-03-26T18:02:42.878Z,67.00
2023-03-26T18:05:15.333Z,68.00
2023-03-26T18:07:58.181Z,68.10
2023-03-26T18:10:39.464Z,68.00
2023-03-26T18:13:40.020Z,68.40
2023-03-26T18:16:08.124Z,68.70
2023-03-26T18:18:51.451Z,69.10
2023-03-26T18:21:35.266Z,69.30
2023-03-26T18:24:08.252Z,69.60
2023-03-26T18:26:41.762Z,70.20
2023-03-26T18:29:35.813Z,70.70
2023-03-26T18:32:23.442Z,71.50
2023-03-26T18:34:59.381Z,72.90
2023-03-26T18:37:36.899Z,72.80
2023-03-26T18:40:22.832Z,72.70
2023-03-26T18:42:53.797Z,74.00
2023-03-26T18:45:38.357Z,74.60
2023-03-26T18:48:21.356Z,73.90
2023-03-26T18:50:57.274Z,74.50
2023-03-26T18:53:30.524Z,72.90
2023-03-26T18:55:59.682Z,73.50
2023-03-26T18:58:36.259Z,72.80
2023-03-26T19:01:19.959Z,74.20
2023-03-26T19:03:54.608Z,73.50
2023-03-26T19:06:24.168Z,72.30
2023-03-26T19:08:53.627Z,73.20
2023-03-26T19:11:24.167Z,72.50
2023-03-26T19:14:05.118Z,72.20
2023-03-26T19:16:36.282Z,73.10
2023-03-26T19:19:07.911Z,74.00
2023-03-26T19:21:37.609Z,72.60
2023-03-26T19:24:09.489Z,72.70
2023-03-26T19:26:38.069Z,74.00
2023-03-26T19:29:08.008Z,73.50
2023-03-26T19:31:38.931Z,73.40
2023-03-26T19:34:14.324Z,72.80
2023-03-26T19:37:03.488Z,72.00
2023-03-26T19:39:39.509Z,74.00
2023-03-26T19:42:14.065Z,75.50
2023-03-26T19:44:44.448Z,73.70
2023-03-26T19:47:35.219Z,73.10
2023-03-26T19:50:29.947Z,72.20
2023-03-26T19:53:19.361Z,72.10
2023-03-26T19:55:58.705Z,71.40
2023-03-26T19:58:29.069Z,71.00
2023-03-26T20:00:57.406Z,69.90
2023-03-26T20:03:30.873Z,70.20
2023-03-26T20:05:59.482Z,69.30
2023-03-26T20:08:27.477Z,69.10
2023-03-26T20:10:57.512Z,69.30
2023-03-26T20:13:25.888Z,69.20
2023-03-26T20:16:06.385Z,69.70
2023-03-26T20:18:35.552Z,69.40
2023-03-26T20:21:10.151Z,69.50
2023-03-26T20:23:39.696Z,69.30
2023-03-26T20:26:15.119Z,69.20
2023-03-26T20:28:48.242Z,69.10
2023-03-26T20:31:25.617Z,69.00
2023-03-26T20:33:54.671Z,69.20
2023-03-26T20:36:32.983Z,68.80
2023-03-26T20:39:08.165Z,68.90
2023-03-26T20:41:39.866Z,68.50
2023-03-26T20:44:16.847Z,68.70
2023-03-26T20:46:46.539Z,69.10
2023-03-26T20:49:15.269Z,68.70
2023-03-26T20:51:43.826Z,68.90
2023-03-26T20:54:24.926Z,68.40
2023-03-26T20:56:58.435Z,68.60
2023-03-26T20:59:28.070Z,68.70
2023-03-26T21:01:59.558Z,68.70
2023-03-26T21:04:27.742Z,68.30
2023-03-26T21:07:03.233Z,68.40
2023-03-26T21:09:38.854Z,68.40
2023-03-26T21:12:09.948Z,68.50
2023-03-26T21:14:42.151Z,68.80
2023-03-26T21:17:16.212Z,68.40
2023-03-26T21:19:44.167Z,69.00
2023-03-26T21:22:17.395Z,69.30
2023-03-26T21:24:54.763Z,70.40
2023-03-26T21:27:37.413Z,71.30
2023-03-26T21:30:16.898Z,72.10
2023-03-26T21:32:45.575Z,73.20
2023-03-26T21:35:14.799Z,75.40
2023-03-26T21:37:44.196Z,77.70
2023-03-26T21:40:14.678Z,80.70
2023-03-26T21:42:43.065Z,84.90
2023-03-26T21:45:10.721Z,87.40
2023-03-26T21:47:38.898Z,90.30
2023-03-26T21:50:06.822Z,91.20
2023-03-26T21:52:34.485Z,92.30
2023-03-26T21:55:03.725Z,93.30
2023-03-26T21:57:50.792Z,94.30
2023-03-26T22:00:19.314Z,95.30
2023-03-26T22:02:52.394Z,97.00
2023-03-26T22:05:36.435Z,99.90
2023-03-26T22:08:07.360Z,99.90
2023-03-26T22:10:34.801Z,99.90
2023-03-26T22:13:02.151Z,99.90
2023-03-26T22:15:32.031Z,99.90
2023-03-26T22:18:03.991Z,99.90
2023-03-26T22:20:34.186Z,99.90
2023-03-26T22:23:01.941Z,99.90
2023-03-26T22:25:32.341Z,99.90
2023-03-26T22:28:05.341Z,99.90
2023-03-26T22:30:33.608Z,99.90
2023-03-26T22:33:03.547Z,99.90
2023-03-26T22:35:31.295Z,99.90
2023-03-26T22:38:00.735Z,99.90
2023-03-26T22:40:28.914Z,99.90
2023-03-26T22:42:56.779Z,99.90
2023-03-26T22:45:24.118Z,99.90
2023-03-26T22:47:53.623Z,99.90
2023-03-26T22:50:30.725Z,99.90
2023-03-26T22:52:58.075Z,99.90
2023-03-26T22:55:28.817Z,99.90
2023-03-26T22:57:57.661Z,99.90
2023-03-26T23:00:26.552Z,99.90
2023-03-26T23:02:56.044Z,99.90
2023-03-26T23:05:25.980Z,99.90
2023-03-26T23:07:56.034Z,99.90
2023-03-26T23:10:24.159Z,99.90
2023-03-26T23:12:52.614Z,99.90
2023-03-26T23:15:20.759Z,99.90
2023-03-26T23:17:54.543Z,99.90
2023-03-26T23:20:22.558Z,99.90
2023-03-26T23:22:52.840Z,99.90
2023-03-26T23:25:20.238Z,99.90
2023-03-26T23:27:48.599Z,99.90
2023-03-26T23:30:16.922Z,99.90
2023-03-26T23:32:44.184Z,99.90
2023-03-26T23:35:11.554Z,99.90
2023-03-26T23:37:43.563Z,99.90
2023-03-26T23:40:17.268Z,99.90
2023-03-26T23:42:47.709Z,99.90
2023-03-26T23:45:16.674Z,99.90
2023-03-26T23:47:44.901Z,99.90
2023-03-26T23:50:13.133Z,99.90
2023-03-26T23:52:40.480Z,99.90
2023-03-26T23:55:08.620Z,99.90
2023-03-26T23:57:37.173Z,99.90
